Time;durP1;ratioP1;P1;durP2;ratioP2;P2;SDS_P1;SDS_P2;PMS_P1;PMS_P2;Temp;Humidity;BMP_temperature;BMP_pressure;BME280_temperature;BME280_humidity;BME280_pressure;Samples;Min_cycle;Max_cycle;Signal;HPM_P1;HPM_P2
2022/10/09 00:00:37;;;;;;;6.40;3.17;;;10.20;99.90;;;;;;5024153;28;20056;-78
2022/10/09 00:03:03;;;;;;;5.20;3.28;;;10.20;99.90;;;;;;5025879;28;20058;-78
2022/10/09 00:05:29;;;;;;;5.07;2.78;;;10.10;99.90;;;;;;5026303;28;20038;-79
2022/10/09 00:07:54;;;;;;;5.03;2.90;;;10.10;99.90;;;;;;5005518;28;20026;-80
2022/10/09 00:10:20;;;;;;;4.82;2.40;;;10.10;99.90;;;;;;5023132;28;20022;-81
2022/10/09 00:12:46;;;;;;;3.70;2.47;;;10.00;99.90;;;;;;5008641;28;20105;-79
2022/10/09 00:15:12;;;;;;;4.75;2.25;;;10.00;99.90;;;;;;5037159;28;20034;-79
2022/10/09 00:17:38;;;;;;;4.35;2.60;;;10.00;99.90;;;;;;5044023;28;20053;-80
2022/10/09 00:20:05;;;;;;;6.47;3.05;;;10.00;99.90;;;;;;5023738;28;20572;-80
2022/10/09 00:22:30;;;;;;;7.75;3.47;;;10.00;99.90;;;;;;5033270;28;20022;-80
2022/10/09 00:24:56;;;;;;;8.23;3.78;;;10.00;99.90;;;;;;5025232;28;20109;-80
2022/10/09 00:27:22;;;;;;;6.70;3.25;;;10.00;99.90;;;;;;5019769;28;20513;-80
2022/10/09 00:29:48;;;;;;;9.13;3.30;;;10.00;99.90;;;;;;5020690;28;20021;-80
2022/10/09 00:32:14;;;;;;;6.68;3.35;;;9.90;99.90;;;;;;5022387;28;20502;-80
2022/10/09 00:34:40;;;;;;;6.60;2.58;;;9.90;99.90;;;;;;5025881;28;20026;-79
2022/10/09 00:37:05;;;;;;;5.05;3.25;;;9.80;99.90;;;;;;5004955;28;20022;-78
2022/10/09 00:39:31;;;;;;;11.05;3.38;;;9.80;99.90;;;;;;5004065;28;20080;-79
2022/10/09 00:41:57;;;;;;;8.80;3.60;;;9.70;99.90;;;;;;5006859;28;20022;-79
2022/10/09 00:44:56;;;;;;;6.32;3.35;;;9.70;99.90;;;;;;5005168;28;20035;-79
2022/10/09 00:47:28;;;;;;;5.57;3.13;;;9.70;99.90;;;;;;5024931;28;20034;-79
2022/10/09 00:49:57;;;;;;;5.30;3.55;;;9.60;99.90;;;;;;5024583;28;20026;-79
2022/10/09 00:52:24;;;;;;;6.82;3.22;;;9.60;99.90;;;;;;5022784;28;20490;-79
2022/10/09 00:54:52;;;;;;;5.47;3.33;;;9.60;99.90;;;;;;5024041;28;20096;-79
2022/10/09 00:57:19;;;;;;;7.55;3.58;;;9.60;99.90;;;;;;5023574;28;20056;-79
2022/10/09 00:59:44;;;;;;;5.20;2.85;;;9.60;99.90;;;;;;5024191;28;20061;-79
2022/10/09 01:02:10;;;;;;;6.45;3.90;;;9.60;99.90;;;;;;5023828;28;20025;-79
2022/10/09 01:04:35;;;;;;;6.95;3.22;;;9.60;99.90;;;;;;5023945;28;20030;-79
2022/10/09 01:07:14;;;;;;;14.07;3.80;;;9.60;99.90;;;;;;5034423;28;20037;-79
2022/10/09 01:10:17;;;;;;;7.20;3.10;;;9.60;99.90;;;;;;5025280;28;20033;-79
2022/10/09 01:13:07;;;;;;;5.43;3.47;;;9.60;99.90;;;;;;5024237;28;20028;-79
2022/10/09 01:15:42;;;;;;;7.45;3.55;;;9.50;99.90;;;;;;5023724;28;20021;-79
2022/10/09 01:18:25;;;;;;;5.38;3.05;;;9.50;99.90;;;;;;5039227;28;20222;-79
2022/10/09 01:21:04;;;;;;;6.30;3.38;;;9.40;99.90;;;;;;5039957;28;20037;-78
2022/10/09 01:24:23;;;;;;;4.85;3.08;;;9.40;99.90;;;;;;5039447;28;20099;-79
2022/10/09 01:27:29;;;;;;;4.47;3.20;;;9.30;99.90;;;;;;4943704;29;20493;-79
2022/10/09 01:30:00;;;;;;;5.22;3.17;;;9.30;99.90;;;;;;4968263;28;20050;-79
2022/10/09 01:32:33;;;;;;;6.30;3.55;;;9.30;99.90;;;;;;4963162;29;20031;-79
2022/10/09 01:35:01;;;;;;;6.88;3.90;;;9.30;99.90;;;;;;5003838;28;20038;-78
2022/10/09 01:37:28;;;;;;;8.05;4.15;;;9.20;99.90;;;;;;5027000;28;20029;-79
2022/10/09 01:39:54;;;;;;;8.15;3.70;;;9.20;99.90;;;;;;5028025;28;20378;-80
2022/10/09 01:42:21;;;;;;;8.68;3.72;;;9.10;99.90;;;;;;5044367;28;20028;-78
2022/10/09 01:44:47;;;;;;;8.10;3.20;;;9.20;99.90;;;;;;5043125;28;20030;-79
2022/10/09 01:47:19;;;;;;;7.30;3.55;;;9.20;99.90;;;;;;5027109;28;20083;-78
2022/10/09 01:50:13;;;;;;;7.55;3.55;;;9.10;99.90;;;;;;5043146;28;20025;-80
2022/10/09 01:52:47;;;;;;;6.18;3.53;;;9.10;99.90;;;;;;5025827;28;20375;-80
2022/10/09 01:55:29;;;;;;;11.23;5.40;;;9.10;99.90;;;;;;5043535;28;20046;-79
2022/10/09 01:58:17;;;;;;;6.55;4.45;;;9.20;99.90;;;;;;5038901;28;20519;-78
2022/10/09 02:01:09;;;;;;;7.38;4.43;;;9.10;99.90;;;;;;5023425;28;20036;-78
2022/10/09 02:03:39;;;;;;;8.40;4.70;;;9.10;99.90;;;;;;5003920;28;20033;-80
2022/10/09 02:06:08;;;;;;;8.55;4.90;;;9.10;99.90;;;;;;4986624;28;20063;-80
2022/10/09 02:08:36;;;;;;;5.18;3.90;;;9.10;99.90;;;;;;5010461;28;20046;-78
2022/10/09 02:11:02;;;;;;;7.93;4.28;;;9.10;99.90;;;;;;5027475;28;20026;-79
2022/10/09 02:13:30;;;;;;;7.15;3.88;;;9.10;99.90;;;;;;5026977;28;20029;-79
2022/10/09 02:16:29;;;;;;;7.18;3.95;;;9.20;99.90;;;;;;5026248;28;20049;-79
2022/10/09 02:19:08;;;;;;;5.50;3.63;;;9.20;99.90;;;;;;5035211;28;20010;-80
2022/10/09 02:21:59;;;;;;;4.93;3.42;;;9.20;99.90;;;;;;5057791;28;20020;-79
2022/10/09 02:24:26;;;;;;;7.45;4.03;;;9.20;99.90;;;;;;5046327;28;20093;-79
2022/10/09 02:26:53;;;;;;;8.35;4.22;;;9.20;99.90;;;;;;5044353;28;20025;-80
2022/10/09 02:29:19;;;;;;;9.00;5.18;;;9.20;99.90;;;;;;5037447;28;20041;-79
2022/10/09 02:31:45;;;;;;;8.20;4.32;;;9.20;99.90;;;;;;5016391;28;20020;-79
2022/10/09 02:34:16;;;;;;;6.63;4.43;;;9.20;99.90;;;;;;5020159;28;20482;-79
2022/10/09 02:36:42;;;;;;;7.88;4.63;;;9.20;99.90;;;;;;5036537;28;20037;-78
2022/10/09 02:39:08;;;;;;;8.15;4.32;;;9.10;99.90;;;;;;5036711;28;20097;-78
2022/10/09 02:41:34;;;;;;;5.55;4.20;;;9.10;99.90;;;;;;5035044;28;20030;-77
2022/10/09 02:44:01;;;;;;;4.88;3.20;;;9.10;99.90;;;;;;5017849;28;20113;-78
2022/10/09 04:31:24;;;;;;;7.38;4.20;;;;;;;;;;5032875;28;20117;-85
2022/10/09 04:34:28;;;;;;;6.78;4.47;;;;;;;;;;5036586;28;20069;-85
2022/10/09 04:37:45;;;;;;;6.32;4.07;;;;;;;;;;4956566;29;20036;-85
2022/10/09 04:40:12;;;;;;;9.70;4.82;;;;;;;;;;4941591;28;20043;-85
2022/10/09 04:42:39;;;;;;;7.18;4.10;;;;;;;;;;4997583;28;20063;-84
2022/10/09 04:45:06;;;;;;;7.18;4.13;;;;;;;;;;5025949;28;20048;-85
2022/10/09 04:54:12;;;;;;;12.65;4.32;;;8.30;99.90;;;;;;4939162;28;20042;-85
2022/10/09 04:56:45;;;;;;;7.03;4.00;;;8.20;99.90;;;;;;4962413;28;20043;-85
2022/10/09 04:59:44;;;;;;;5.72;4.50;;;8.20;99.90;;;;;;4965975;28;20019;-84
2022/10/09 05:02:58;;;;;;;6.68;4.65;;;8.20;99.90;;;;;;4900900;29;20110;-84
2022/10/09 05:05:26;;;;;;;11.57;4.55;;;8.20;99.90;;;;;;4930527;29;20051;-82
2022/10/09 05:07:52;;;;;;;5.97;4.30;;;8.20;99.90;;;;;;5011438;28;20034;-84
2022/10/09 05:10:17;;;;;;;9.82;4.80;;;8.10;99.90;;;;;;5000184;28;20037;-82
2022/10/09 05:12:43;;;;;;;10.23;4.75;;;8.10;99.90;;;;;;5019675;28;20121;-84
2022/10/09 05:15:09;;;;;;;10.55;4.57;;;8.10;99.90;;;;;;5018866;28;20068;-83
2022/10/09 05:17:34;;;;;;;12.63;6.10;;;8.00;99.90;;;;;;5000661;28;20049;-83
2022/10/09 05:20:00;;;;;;;9.13;4.22;;;8.00;99.90;;;;;;5002429;28;20108;-83
2022/10/09 05:22:26;;;;;;;7.57;4.40;;;8.00;99.90;;;;;;5022056;28;20033;-83
2022/10/09 05:24:51;;;;;;;5.65;3.78;;;8.00;99.90;;;;;;5022062;28;20037;-83
2022/10/09 05:27:17;;;;;;;5.30;4.10;;;8.00;99.90;;;;;;5020934;28;20034;-80
2022/10/09 05:29:42;;;;;;;8.20;3.80;;;8.00;99.90;;;;;;5039251;28;20114;-78
2022/10/09 05:32:08;;;;;;;7.45;3.92;;;8.10;99.90;;;;;;5043676;28;20053;-83
2022/10/09 05:34:34;;;;;;;5.28;3.63;;;8.00;99.90;;;;;;5024716;28;20029;-83
2022/10/09 05:37:00;;;;;;;5.20;3.60;;;8.10;99.90;;;;;;5005219;28;20049;-85
2022/10/09 05:39:25;;;;;;;7.85;3.70;;;8.10;99.90;;;;;;5021869;28;20439;-84
2022/10/09 05:41:51;;;;;;;9.82;3.88;;;8.10;99.90;;;;;;5023112;28;20038;-84
2022/10/09 05:44:16;;;;;;;4.65;3.20;;;8.20;99.90;;;;;;5022870;28;20425;-84
2022/10/09 05:46:42;;;;;;;4.80;3.33;;;8.20;99.90;;;;;;5023994;28;20085;-83
2022/10/09 05:49:10;;;;;;;7.75;3.67;;;8.30;99.90;;;;;;5027234;28;20037;-84
2022/10/09 05:51:38;;;;;;;3.47;3.15;;;8.30;99.90;;;;;;5021908;28;20021;-85
2022/10/09 05:54:05;;;;;;;4.45;3.10;;;8.30;99.90;;;;;;5041890;28;20042;-83
2022/10/09 05:56:30;;;;;;;6.45;3.38;;;8.30;99.90;;;;;;5040239;28;20034;-83
2022/10/09 05:59:13;;;;;;;5.93;2.88;;;8.30;99.90;;;;;;5042705;28;20083;-86
2022/10/09 06:01:42;;;;;;;5.15;3.42;;;8.40;99.90;;;;;;5019180;28;20390;-82
2022/10/09 06:04:11;;;;;;;4.00;3.50;;;8.50;99.90;;;;;;5022783;28;20030;-83
2022/10/09 06:06:39;;;;;;;5.32;3.53;;;8.50;99.90;;;;;;5022945;28;20025;-84
2022/10/09 06:09:06;;;;;;;7.03;4.55;;;8.50;99.90;;;;;;5046709;28;20061;-83
2022/10/09 06:11:34;;;;;;;8.50;4.28;;;8.50;99.90;;;;;;5039851;28;20470;-83
2022/10/09 06:14:03;;;;;;;7.95;3.95;;;8.50;99.90;;;;;;5040753;28;20021;-82
2022/10/09 06:16:31;;;;;;;8.98;4.05;;;8.60;99.90;;;;;;5040950;28;20041;-84
2022/10/09 06:18:57;;;;;;;5.70;3.40;;;8.60;99.90;;;;;;5053888;28;20036;-83
2022/10/09 06:21:42;;;;;;;8.85;4.03;;;8.70;99.90;;;;;;5023633;28;20079;-84
2022/10/09 06:24:20;;;;;;;5.80;3.83;;;8.70;99.90;;;;;;5008537;28;20036;-84
2022/10/09 06:26:46;;;;;;;6.70;3.60;;;8.80;99.90;;;;;;5023383;28;20061;-83
2022/10/09 06:29:12;;;;;;;10.07;3.88;;;8.80;99.90;;;;;;5013205;28;20033;-82
2022/10/09 06:31:40;;;;;;;5.57;3.70;;;8.80;99.90;;;;;;5019755;28;20022;-83
2022/10/09 06:34:08;;;;;;;8.77;3.47;;;8.80;99.90;;;;;;5000921;28;20079;-84
2022/10/09 06:36:37;;;;;;;8.25;3.70;;;8.90;99.90;;;;;;5003204;28;20026;-83
2022/10/09 06:39:13;;;;;;;8.27;4.10;;;8.90;99.90;;;;;;5009773;28;20537;-84
2022/10/09 06:41:42;;;;;;;7.68;3.70;;;9.00;99.90;;;;;;5023394;28;20029;-84
2022/10/09 06:44:11;;;;;;;5.32;3.13;;;9.10;99.90;;;;;;5022765;28;20060;-84
2022/10/09 06:46:40;;;;;;;4.28;2.63;;;9.20;99.90;;;;;;5043659;28;20030;-83
2022/10/09 06:49:07;;;;;;;6.07;3.42;;;9.30;99.90;;;;;;5041390;28;20079;-83
2022/10/09 06:51:34;;;;;;;4.63;2.92;;;9.40;99.90;;;;;;5024838;28;20032;-84
2022/10/09 06:54:02;;;;;;;5.63;3.78;;;9.50;99.90;;;;;;5026321;28;20029;-83
2022/10/09 06:56:30;;;;;;;8.02;3.35;;;9.60;99.90;;;;;;5022430;28;20023;-83
2022/10/09 06:59:00;;;;;;;12.45;3.92;;;9.60;99.90;;;;;;5035036;28;20398;-83
2022/10/09 07:01:30;;;;;;;4.55;2.75;;;9.60;99.90;;;;;;5000623;28;20117;-82
2022/10/09 07:03:58;;;;;;;4.38;2.78;;;9.60;99.90;;;;;;4985106;28;20113;-83
2022/10/09 07:06:26;;;;;;;7.35;3.20;;;9.70;99.90;;;;;;5001512;28;20057;-82
2022/10/09 07:08:58;;;;;;;8.63;4.22;;;9.90;99.90;;;;;;5003886;28;20109;-83
2022/10/09 07:14:39;;;;;;;5.07;3.20;;;9.90;99.90;;;;;;5035076;28;20040;-82
2022/10/09 07:17:04;;;;;;;6.20;3.10;;;9.90;99.90;;;;;;5056336;28;20029;-83
2022/10/09 07:19:30;;;;;;;6.82;3.17;;;10.00;99.90;;;;;;5052308;28;20060;-83
2022/10/09 07:21:56;;;;;;;9.95;3.65;;;10.00;99.90;;;;;;5050462;28;20029;-84
2022/10/09 07:25:15;;;;;;;6.55;3.30;;;10.00;99.90;;;;;;5046837;28;20482;-84
2022/10/09 07:27:41;;;;;;;8.55;3.58;;;10.00;99.90;;;;;;5013552;28;20049;-84
2022/10/09 07:30:07;;;;;;;6.75;3.15;;;10.10;99.90;;;;;;5023919;28;20413;-84
2022/10/09 07:32:33;;;;;;;5.22;3.53;;;10.10;99.90;;;;;;5002706;28;20109;-84
2022/10/09 07:34:59;;;;;;;7.35;3.38;;;10.30;99.90;;;;;;5003656;28;20022;-84
2022/10/09 07:37:27;;;;;;;9.48;3.40;;;10.40;99.90;;;;;;4985150;28;20065;-83
2022/10/09 07:39:52;;;;;;;6.32;2.97;;;10.50;99.90;;;;;;5002168;28;20099;-84
2022/10/09 07:42:18;;;;;;;5.72;3.10;;;10.50;99.90;;;;;;5000361;28;20042;-84
2022/10/09 07:44:44;;;;;;;6.03;3.72;;;10.70;99.90;;;;;;5004878;28;20109;-84
2022/10/09 07:47:09;;;;;;;7.38;3.35;;;10.80;99.90;;;;;;5005946;28;20502;-82
2022/10/09 07:49:35;;;;;;;6.05;3.60;;;10.80;99.90;;;;;;5002238;28;20090;-84
2022/10/09 07:52:00;;;;;;;7.57;3.38;;;10.90;99.90;;;;;;5002697;28;20069;-83
2022/10/09 07:54:26;;;;;;;4.80;4.00;;;10.90;99.90;;;;;;5002450;28;20045;-84
2022/10/09 07:56:52;;;;;;;6.95;3.80;;;11.00;99.90;;;;;;4984640;28;20026;-82
2022/10/09 07:59:21;;;;;;;5.35;3.85;;;11.00;99.90;;;;;;5011813;28;20029;-83
2022/10/09 08:01:46;;;;;;;7.15;3.30;;;11.10;99.90;;;;;;5026812;28;20029;-83
2022/10/09 08:04:15;;;;;;;9.38;3.53;;;11.20;99.90;;;;;;5033766;28;20081;-85
2022/10/09 08:06:41;;;;;;;5.68;3.17;;;11.30;99.90;;;;;;5001684;28;20066;-83
2022/10/09 08:09:08;;;;;;;6.53;3.88;;;11.50;99.90;;;;;;5019908;28;20080;-83
2022/10/09 08:11:34;;;;;;;9.13;3.83;;;11.60;99.90;;;;;;5020077;28;20022;-82
2022/10/09 08:14:00;;;;;;;6.25;3.38;;;11.70;99.90;;;;;;5019120;28;20033;-82
2022/10/09 08:16:27;;;;;;;8.88;4.28;;;11.90;99.90;;;;;;5019171;28;20026;-82
2022/10/09 08:19:00;;;;;;;5.45;3.25;;;12.10;99.90;;;;;;5006952;28;20029;-82
2022/10/09 08:21:27;;;;;;;5.80;3.38;;;12.20;99.90;;;;;;5039599;28;20379;-82
2022/10/09 08:24:10;;;;;;;8.10;3.55;;;12.40;99.90;;;;;;5038784;28;20028;-82
2022/10/09 08:26:36;;;;;;;5.20;3.83;;;12.50;99.90;;;;;;5021587;28;20062;-83
2022/10/09 08:29:05;;;;;;;10.93;4.07;;;12.60;99.90;;;;;;5031754;28;20497;-82
2022/10/09 08:31:31;;;;;;;7.30;4.35;;;12.60;99.90;;;;;;5015856;28;20065;-82
2022/10/09 08:34:00;;;;;;;7.22;3.33;;;12.60;99.90;;;;;;5000899;28;20034;-83
2022/10/09 08:36:26;;;;;;;10.05;4.22;;;12.60;99.90;;;;;;5008423;28;20114;-83
2022/10/09 08:38:52;;;;;;;10.30;4.20;;;12.60;99.90;;;;;;5041291;28;20029;-81
2022/10/09 08:41:42;;;;;;;11.20;4.30;;;12.70;99.90;;;;;;5038776;28;20033;-82
2022/10/09 08:44:30;;;;;;;10.55;4.47;;;12.80;99.50;;;;;;5039737;28;20030;-83
2022/10/09 08:47:17;;;;;;;7.57;3.38;;;12.90;99.90;;;;;;5093010;22;20025;-86
2022/10/09 08:49:56;;;;;;;6.20;3.58;;;13.00;99.90;;;;;;5056086;28;20093;-86
2022/10/09 08:53:07;;;;;;;5.65;3.88;;;13.20;99.90;;;;;;5038900;28;20014;-87
2022/10/09 08:55:42;;;;;;;5.65;3.83;;;13.40;99.20;;;;;;5064337;28;20043;-87
2022/10/09 08:58:14;;;;;;;8.57;4.68;;;13.50;98.60;;;;;;5080201;28;20024;-87
2022/10/09 09:01:12;;;;;;;7.72;4.20;;;13.50;97.90;;;;;;5068532;28;20033;-86
2022/10/09 09:04:13;;;;;;;6.53;4.10;;;13.40;98.10;;;;;;5053282;28;20029;-86
2022/10/09 09:06:44;;;;;;;6.70;4.32;;;13.40;97.90;;;;;;5074746;28;20013;-85
2022/10/09 09:09:29;;;;;;;9.75;4.38;;;13.40;98.00;;;;;;5061904;28;20045;-87
2022/10/09 09:12:14;;;;;;;9.98;5.22;;;13.40;98.30;;;;;;5079786;28;20029;-87
2022/10/09 09:14:53;;;;;;;8.35;4.90;;;13.80;97.40;;;;;;5062275;28;20024;-86
2022/10/09 09:17:39;;;;;;;8.25;5.03;;;13.80;97.40;;;;;;5062389;28;20029;-85
2022/10/09 09:20:08;;;;;;;6.50;4.43;;;13.90;97.30;;;;;;5062197;28;20021;-84
2022/10/09 09:22:38;;;;;;;8.80;5.05;;;13.90;97.20;;;;;;5079920;28;20032;-85
2022/10/09 09:25:17;;;;;;;8.55;5.20;;;13.90;97.10;;;;;;5062212;28;20080;-85
2022/10/09 09:27:42;;;;;;;9.57;5.95;;;14.00;95.90;;;;;;5063960;28;20014;-84
2022/10/09 09:30:11;;;;;;;7.40;4.78;;;14.00;96.20;;;;;;5077599;28;20236;-85
2022/10/09 09:33:01;;;;;;;10.20;4.70;;;13.90;95.90;;;;;;5078904;28;20033;-84
2022/10/09 09:35:32;;;;;;;8.20;4.63;;;14.00;96.10;;;;;;5020263;28;20017;-83
2022/10/09 09:37:58;;;;;;;6.97;4.82;;;14.10;95.60;;;;;;5061015;28;20025;-84
2022/10/09 09:40:28;;;;;;;10.10;4.80;;;14.10;95.40;;;;;;5079500;28;20017;-84
2022/10/09 09:42:55;;;;;;;10.40;5.00;;;14.10;95.80;;;;;;5062009;28;20080;-84
2022/10/09 09:45:23;;;;;;;8.32;5.15;;;14.10;95.70;;;;;;5077392;28;20021;-84
2022/10/09 09:47:58;;;;;;;8.82;4.90;;;14.20;95.50;;;;;;5061556;28;20025;-85
2022/10/09 09:50:38;;;;;;;7.38;4.45;;;14.30;95.00;;;;;;5062089;28;20028;-84
2022/10/09 09:53:11;;;;;;;10.52;4.22;;;14.30;94.90;;;;;;5079039;28;20127;-84
2022/10/09 09:55:37;;;;;;;6.00;4.20;;;14.30;95.20;;;;;;5055934;28;20022;-85
2022/10/09 09:58:05;;;;;;;6.85;4.07;;;14.50;94.70;;;;;;5058964;28;20110;-85
2022/10/09 10:00:32;;;;;;;9.27;4.35;;;14.50;94.50;;;;;;5049134;28;20017;-84
2022/10/09 10:03:13;;;;;;;8.77;4.55;;;14.60;93.50;;;;;;5058018;28;20034;-84
2022/10/09 10:05:40;;;;;;;4.05;3.45;;;14.60;93.90;;;;;;5073246;28;20052;-84
2022/10/09 10:08:13;;;;;;;12.98;5.13;;;14.60;94.10;;;;;;5074510;28;20013;-84
2022/10/09 10:10:44;;;;;;;5.22;3.88;;;14.60;92.90;;;;;;5062050;28;20044;-83
2022/10/09 10:13:20;;;;;;;6.43;4.13;;;14.50;93.50;;;;;;5062224;28;20025;-82
2022/10/09 10:15:52;;;;;;;5.18;3.70;;;14.50;94.20;;;;;;5079103;28;20021;-83
2022/10/09 10:18:19;;;;;;;6.75;3.45;;;14.70;93.80;;;;;;5061649;28;20020;-83
2022/10/09 10:20:48;;;;;;;8.65;3.67;;;14.90;93.60;;;;;;5078017;28;20054;-82
2022/10/09 10:23:33;;;;;;;7.80;3.33;;;15.00;93.00;;;;;;5048721;28;20016;-81
2022/10/09 10:26:04;;;;;;;4.20;3.25;;;15.00;92.90;;;;;;5064020;28;20013;-83
2022/10/09 10:29:05;;;;;;;7.13;2.97;;;15.10;93.00;;;;;;5041549;28;20053;-83
2022/10/09 10:31:59;;;;;;;5.45;3.20;;;15.10;92.90;;;;;;5047310;28;20038;-83
2022/10/09 10:34:34;;;;;;;5.22;3.03;;;15.20;92.60;;;;;;5066597;28;20020;-83
2022/10/09 10:37:16;;;;;;;4.20;3.15;;;15.10;92.20;;;;;;5061120;28;20025;-83
2022/10/09 10:39:49;;;;;;;8.95;3.00;;;15.00;93.10;;;;;;5070908;28;20019;-83
2022/10/09 10:42:23;;;;;;;4.55;3.28;;;15.00;92.90;;;;;;5063908;28;20025;-83
2022/10/09 10:44:53;;;;;;;5.72;3.20;;;15.10;92.50;;;;;;5078753;28;20036;-83
2022/10/09 10:47:24;;;;;;;3.20;2.90;;;15.10;92.50;;;;;;5061333;28;20033;-83
2022/10/09 10:49:50;;;;;;;4.50;2.90;;;15.10;92.20;;;;;;5062925;28;20069;-84
2022/10/09 10:52:30;;;;;;;5.90;2.55;;;15.10;92.30;;;;;;5069619;28;20025;-84
2022/10/09 10:55:19;;;;;;;3.30;2.50;;;15.30;92.10;;;;;;5060436;28;20016;-85
2022/10/09 10:58:17;;;;;;;4.15;2.53;;;15.30;91.60;;;;;;5031122;28;20053;-83
2022/10/09 11:00:52;;;;;;;3.22;2.65;;;15.30;90.90;;;;;;5040058;28;20033;-84
2022/10/09 11:03:39;;;;;;;5.55;2.67;;;15.30;91.10;;;;;;5055390;28;20081;-84
2022/10/09 11:06:24;;;;;;;4.45;2.85;;;15.40;90.90;;;;;;5057005;28;20043;-84
2022/10/09 11:08:54;;;;;;;5.70;2.92;;;15.40;90.50;;;;;;5048483;28;20032;-84
2022/10/09 11:11:36;;;;;;;5.72;3.30;;;15.40;90.30;;;;;;5045757;28;20024;-83
2022/10/09 11:14:21;;;;;;;4.15;3.10;;;15.50;89.60;;;;;;5062881;28;20020;-83
2022/10/09 11:16:59;;;;;;;3.65;2.40;;;15.40;89.70;;;;;;5043216;28;20069;-84
2022/10/09 11:19:36;;;;;;;11.43;3.60;;;15.30;90.00;;;;;;5074132;28;20079;-85
2022/10/09 11:22:09;;;;;;;4.47;2.65;;;15.30;90.00;;;;;;5076874;28;20012;-83
2022/10/09 11:24:37;;;;;;;4.95;2.80;;;15.40;90.10;;;;;;5075267;28;20029;-81
2022/10/09 11:27:16;;;;;;;4.28;2.50;;;15.50;90.00;;;;;;5074695;28;20033;-79
2022/10/09 11:29:59;;;;;;;5.47;2.60;;;15.40;89.90;;;;;;5051940;28;20020;-83
2022/10/09 11:32:35;;;;;;;5.63;2.67;;;15.40;90.00;;;;;;5063512;28;20080;-82
2022/10/09 11:35:03;;;;;;;5.25;3.03;;;15.50;89.70;;;;;;5068865;28;20037;-83
2022/10/09 11:37:34;;;;;;;3.47;1.77;;;15.60;89.00;;;;;;5072469;28;20033;-82
2022/10/09 11:40:13;;;;;;;4.35;2.28;;;15.70;89.10;;;;;;5059389;28;20526;-81
2022/10/09 11:42:39;;;;;;;5.13;2.00;;;15.90;88.50;;;;;;5067015;28;20029;-82
2022/10/09 11:45:28;;;;;;;4.78;2.95;;;16.20;88.20;;;;;;5055751;28;20026;-83
2022/10/09 11:48:14;;;;;;;3.75;1.90;;;16.30;86.70;;;;;;5037839;28;20030;-83
2022/10/09 11:50:59;;;;;;;3.95;2.70;;;16.40;87.20;;;;;;5056095;28;20025;-82
2022/10/09 11:53:28;;;;;;;3.25;2.03;;;16.50;87.20;;;;;;5056559;28;20045;-83
2022/10/09 11:56:07;;;;;;;4.38;2.60;;;16.60;86.40;;;;;;5055889;28;20100;-82
2022/10/09 11:58:33;;;;;;;4.82;2.40;;;16.60;83.70;;;;;;5061548;28;20028;-82
2022/10/09 12:01:22;;;;;;;3.90;2.90;;;16.30;84.70;;;;;;5087345;28;20043;-83
2022/10/09 12:04:06;;;;;;;6.10;2.92;;;16.10;85.10;;;;;;5056705;28;20027;-82
2022/10/09 12:06:43;;;;;;;4.70;2.53;;;16.10;85.70;;;;;;5056488;28;20021;-82
2022/10/09 12:09:24;;;;;;;5.05;2.90;;;15.90;86.10;;;;;;5069581;28;20092;-82
2022/10/09 12:12:05;;;;;;;4.47;2.35;;;15.80;86.50;;;;;;5056706;28;20021;-82
2022/10/09 12:14:32;;;;;;;4.03;2.47;;;15.70;87.90;;;;;;5056681;28;20025;-82
2022/10/09 12:16:58;;;;;;;2.72;2.00;;;15.90;87.20;;;;;;5056296;28;20024;-82
2022/10/09 12:19:38;;;;;;;4.03;1.92;;;16.00;86.80;;;;;;5039464;28;20006;-81
2022/10/09 12:22:13;;;;;;;3.35;2.38;;;16.10;86.70;;;;;;5075434;28;20032;-82
2022/10/09 12:24:43;;;;;;;4.78;2.30;;;16.30;85.00;;;;;;5070144;28;20010;-82
2022/10/09 12:27:25;;;;;;;3.42;2.20;;;16.30;85.50;;;;;;5056196;28;20030;-81
2022/10/09 12:29:58;;;;;;;5.43;2.47;;;16.20;84.80;;;;;;5066731;28;20108;-82
2022/10/09 12:32:36;;;;;;;4.35;2.70;;;16.10;85.30;;;;;;5067574;28;20079;-82
2022/10/09 12:35:23;;;;;;;3.75;2.60;;;15.90;86.10;;;;;;5061250;28;20037;-84
2022/10/09 12:37:49;;;;;;;3.75;2.67;;;15.80;87.30;;;;;;5048010;28;20056;-83
2022/10/09 12:40:16;;;;;;;4.82;2.20;;;15.80;88.40;;;;;;5059903;28;20116;-82
2022/10/09 12:42:43;;;;;;;7.43;2.30;;;16.00;86.90;;;;;;5052991;28;20029;-83
2022/10/09 12:45:17;;;;;;;4.90;2.42;;;16.10;86.60;;;;;;5045212;28;20093;-82
2022/10/09 12:47:43;;;;;;;2.47;2.25;;;16.10;86.10;;;;;;5055220;28;20044;-82
2022/10/09 12:50:15;;;;;;;5.18;2.50;;;16.10;87.10;;;;;;5073850;28;20150;-81
2022/10/09 12:53:36;;;;;;;2.92;1.98;;;16.10;87.10;;;;;;5068765;28;20021;-82
2022/10/09 12:56:12;;;;;;;8.82;2.70;;;16.20;86.90;;;;;;5037828;28;20036;-82
2022/10/09 12:58:40;;;;;;;4.88;2.60;;;16.20;85.50;;;;;;5057111;28;20501;-81
2022/10/09 13:01:10;;;;;;;5.50;2.35;;;16.20;85.90;;;;;;5058766;28;20065;-83
2022/10/09 13:03:39;;;;;;;3.22;2.20;;;16.20;85.30;;;;;;5049244;28;20084;-81
2022/10/09 13:06:12;;;;;;;4.72;2.10;;;16.20;85.10;;;;;;5045831;28;20021;-82
2022/10/09 13:08:38;;;;;;;3.17;1.80;;;16.10;86.00;;;;;;5043891;28;20017;-83
2022/10/09 13:11:36;;;;;;;7.25;2.50;;;16.10;85.10;;;;;;5062404;28;20025;-83
2022/10/09 13:14:02;;;;;;;3.60;1.95;;;16.10;85.20;;;;;;5063994;28;20408;-82
2022/10/09 13:16:42;;;;;;;4.38;2.22;;;16.00;85.50;;;;;;5059373;28;20032;-83
2022/10/09 13:19:28;;;;;;;6.57;2.33;;;16.20;85.50;;;;;;5063836;28;20031;-82
2022/10/09 13:22:24;;;;;;;5.57;2.67;;;16.20;86.00;;;;;;5059507;28;20024;-84
2022/10/09 13:24:52;;;;;;;2.60;1.90;;;16.10;84.90;;;;;;5075850;28;20033;-84
2022/10/09 13:27:23;;;;;;;5.63;2.53;;;15.90;85.50;;;;;;5057876;28;20492;-83
2022/10/09 13:29:49;;;;;;;3.17;2.30;;;15.80;86.20;;;;;;5057057;28;20032;-83
2022/10/09 13:32:17;;;;;;;4.65;2.00;;;15.70;85.80;;;;;;5052849;28;20089;-84
2022/10/09 13:34:43;;;;;;;2.60;1.90;;;15.50;86.90;;;;;;5064882;28;20026;-84
2022/10/09 13:37:19;;;;;;;2.03;1.83;;;15.40;87.80;;;;;;5052635;28;20037;-83
2022/10/09 13:39:45;;;;;;;5.95;2.30;;;15.40;88.20;;;;;;5070980;28;20032;-84
2022/10/09 13:42:13;;;;;;;4.30;2.00;;;15.40;87.20;;;;;;5078956;28;20029;-83
2022/10/09 13:44:39;;;;;;;4.45;1.95;;;15.20;88.00;;;;;;5057660;28;20029;-83
2022/10/09 13:47:04;;;;;;;5.03;2.20;;;15.20;88.40;;;;;;5054741;28;20040;-82
2022/10/09 13:49:30;;;;;;;8.32;2.50;;;15.10;89.20;;;;;;5070652;28;20049;-83
2022/10/09 13:51:56;;;;;;;3.08;2.22;;;15.10;88.70;;;;;;5051150;28;20024;-82
2022/10/09 13:54:22;;;;;;;6.55;2.00;;;15.10;89.50;;;;;;5050147;28;20032;-83
2022/10/09 13:56:48;;;;;;;4.18;2.40;;;15.00;89.80;;;;;;5033547;28;20093;-83
2022/10/09 13:59:14;;;;;;;2.83;2.03;;;15.00;90.00;;;;;;5063587;28;20032;-83
2022/10/09 14:01:39;;;;;;;3.17;2.08;;;15.10;90.20;;;;;;5050960;28;20021;-82
2022/10/09 14:04:05;;;;;;;3.83;2.13;;;15.00;90.30;;;;;;5075030;28;20030;-83
2022/10/09 14:06:34;;;;;;;5.15;2.50;;;15.10;90.60;;;;;;5058500;28;20073;-83
2022/10/09 14:09:00;;;;;;;3.15;1.98;;;15.10;90.70;;;;;;5058783;28;20039;-83
2022/10/09 14:11:26;;;;;;;5.20;2.53;;;15.00;90.40;;;;;;5066670;28;20510;-83
2022/10/09 14:13:51;;;;;;;3.53;2.00;;;15.00;90.60;;;;;;5067449;28;20017;-83
2022/10/09 14:16:17;;;;;;;4.78;2.80;;;15.10;90.70;;;;;;5070206;28;20033;-82
2022/10/09 14:18:43;;;;;;;8.68;3.10;;;15.00;90.50;;;;;;5042631;28;20034;-82
2022/10/09 14:21:14;;;;;;;3.63;2.05;;;14.90;90.70;;;;;;5048604;28;20037;-82
2022/10/09 14:23:39;;;;;;;3.60;1.90;;;14.80;91.10;;;;;;5044448;28;20029;-82
2022/10/09 14:26:06;;;;;;;3.10;2.25;;;14.80;91.20;;;;;;5050919;28;20043;-82
2022/10/09 14:28:32;;;;;;;4.00;2.45;;;14.80;91.40;;;;;;5043566;28;20112;-82
2022/10/09 14:30:58;;;;;;;7.10;2.55;;;14.80;91.30;;;;;;5056886;28;20035;-82
2022/10/09 14:33:24;;;;;;;4.82;2.35;;;14.70;91.30;;;;;;5063163;28;20100;-82
2022/10/09 14:35:50;;;;;;;5.47;2.55;;;14.60;91.80;;;;;;5059149;28;20044;-83
2022/10/09 14:38:16;;;;;;;4.53;2.33;;;14.50;92.10;;;;;;5063532;28;20466;-82
2022/10/09 14:40:43;;;;;;;3.80;2.38;;;14.40;92.40;;;;;;5066379;28;20049;-82
2022/10/09 14:43:09;;;;;;;9.68;3.03;;;14.40;92.80;;;;;;5058151;28;20029;-80
2022/10/09 14:45:36;;;;;;;5.72;2.33;;;14.30;92.60;;;;;;5054209;22;20034;-85
2022/10/09 14:51:47;;;;;;;6.60;2.55;;;14.20;93.20;;;;;;4997324;28;20074;-84
2022/10/09 14:58:37;;;;;;;9.15;3.10;;;14.10;93.60;;;;;;4963218;28;20155;-84
2022/10/09 15:01:41;;;;;;;10.88;3.20;;;14.10;93.60;;;;;;4942667;28;20023;-84
2022/10/09 15:04:55;;;;;;;5.43;3.15;;;14.10;93.80;;;;;;4978032;28;20038;-84
2022/10/09 15:07:41;;;;;;;6.10;3.58;;;14.00;93.80;;;;;;4913541;28;20032;-83
2022/10/09 15:10:19;;;;;;;5.15;3.03;;;14.00;94.20;;;;;;4958319;28;20027;-82
2022/10/09 15:12:46;;;;;;;5.55;3.55;;;13.80;94.40;;;;;;4967059;28;20138;-84
2022/10/09 15:15:25;;;;;;;13.68;3.75;;;13.80;94.50;;;;;;4974850;28;20062;-84
2022/10/09 15:18:15;;;;;;;5.65;3.20;;;13.80;94.90;;;;;;4999993;28;20042;-84
2022/10/09 15:24:15;;;;;;;5.53;2.97;;;13.70;95.30;;;;;;4963105;28;20149;-84
2022/10/09 15:27:31;;;;;;;5.70;3.08;;;13.70;95.40;;;;;;4999721;28;20407;-84